CheckWX is a tool to help pilots better visualize weather data.  It is not intended as a substitute for an official pre-flight weather briefing.

16:04:39 UTC

CYBG TAF
CFB Bagotville Airport
Bagotville, Canada
TAF AMD CYBG 071305Z 0713/0812 29012KT P6SM BKN025 TEMPO 0713/0801 P6SM -SHSN BKN020 BECMG 0809/0811 10008KT RMK NXT FCST BY 071800Z

Dec-7@
13:00 UTC

Dec-7 @ 13:00 UTC

Dec-8@
09:00 UTC

Dec-8 @ 09:00 UTC

TAF AMD CYBG 071305Z 0713/0812 29012KT P6SM BKN025
Wind
  • 290° at 12 KTS
Cloud Levels
  • Broken at 2,500' AGL

Dec-7@
13:00 UTC

Dec-7 @ 13:00 UTC

Dec-8@
01:00 UTC

Dec-8 @ 01:00 UTC

TEMPO 0713/0801 P6SM -SHSN BKN020

Temporary

Temporary Changes expected for less than half the time period

Conditions
Light Snow
Cloud Levels
  • Broken at 2,000' AGL

Dec-8@
09:00 UTC

Dec-8 @ 09:00 UTC

Dec-8@
12:00 UTC

Dec-8 @ 12:00 UTC

BECMG 0809/0811 10008KT RMK NXT FCST BY 071800Z

Becoming

Becoming Conditions expected by Sun, Dec 8, 2019 @ 11:00 UTC

Wind
  • 100° at 8 KTS
Cloud Levels
  • Broken at 2,500' AGL